Time;durP1;ratioP1;P1;durP2;ratioP2;P2;SDS_P1;SDS_P2;PMS_P1;PMS_P2;Temp;Humidity;BMP_temperature;BMP_pressure;BME280_temperature;BME280_humidity;BME280_pressure;Samples;Min_cycle;Max_cycle;Signal;HPM_P1;HPM_P2
2021/12/17 00:00:19;;;;;;;7.70;5.00;;;;;;;1.04;76.22;99341.43;24500;1356;3026423;-64
2021/12/17 00:05:54;;;;;;;5.80;4.60;;;;;;;0.87;76.49;99340.63;24445;1361;3055186;-64
2021/12/17 00:08:23;;;;;;;8.00;5.20;;;;;;;0.77;76.43;99338.79;24501;1353;3055920;-65
2021/12/17 00:10:52;;;;;;;9.90;6.50;;;;;;;0.54;77.34;99333.93;24473;1355;3026666;-64
2021/12/17 00:13:21;;;;;;;10.20;6.20;;;;;;;0.40;77.61;99334.23;24512;1355;3026423;-65
2021/12/17 00:15:50;;;;;;;9.50;6.10;;;;;;;0.25;77.90;99336.61;24487;1355;3059755;-65
2021/12/17 00:18:27;;;;;;;5.90;3.40;;;;;;;-0.02;79.60;99327.00;24545;1356;3028412;-63
2021/12/17 00:48:53;;;;;;;6.80;4.50;;;;;;;0.50;78.45;99297.66;24476;1358;3053565;-63
2021/12/17 00:54:07;;;;;;;7.90;4.40;;;;;;;0.12;78.95;99298.79;24501;1355;3059234;-63
2021/12/17 00:56:36;;;;;;;9.00;4.30;;;;;;;-0.15;80.15;99300.20;24474;1358;3051555;-64
2021/12/17 00:59:06;;;;;;;4.50;3.20;;;;;;;-0.26;81.35;99294.91;24531;1355;3026825;-65
2021/12/17 01:01:35;;;;;;;5.60;3.60;;;;;;;0.27;80.10;99290.74;24486;1361;3058562;-64
2021/12/17 01:04:04;;;;;;;8.60;4.00;;;;;;;0.53;79.06;99282.42;24458;1355;3026349;-63
2021/12/17 01:06:34;;;;;;;3.80;2.50;;;;;;;0.76;77.81;99272.41;24477;1357;3051894;-64
2021/12/17 01:09:03;;;;;;;6.50;3.80;;;;;;;0.52;78.09;99265.36;24473;1355;3028211;-64
2021/12/17 01:11:41;;;;;;;7.10;4.70;;;;;;;0.31;78.94;99264.13;24473;1362;3055011;-65
2021/12/17 01:14:46;;;;;;;6.70;4.80;;;;;;;0.38;78.10;99255.17;24354;1367;3053200;-62
2021/12/17 01:17:31;;;;;;;6.10;3.90;;;;;;;-0.09;80.29;99252.56;24489;1359;3059253;-64
2021/12/17 01:20:52;;;;;;;3.00;2.20;;;;;;;0.11;79.89;99252.67;24507;1354;3049320;-64
2021/12/17 01:38:59;;;;;;;13.40;7.90;;;;;;;0.00;79.95;99223.45;24481;1359;3053577;-65
2021/12/17 01:43:46;;;;;;;10.40;5.80;;;;;;;0.99;78.09;99206.31;24451;1359;3050335;-63
2021/12/17 01:46:21;;;;;;;12.40;6.60;;;;;;;0.92;76.73;99206.83;24520;1355;3026498;-65
2021/12/17 01:49:18;;;;;;;9.30;5.90;;;;;;;0.87;77.08;99202.15;24495;1355;3053776;-64
2021/12/17 02:00:08;;;;;;;7.70;5.10;;;;;;;-0.02;80.66;99193.70;24418;1352;3026079;-63
2021/12/17 02:02:49;;;;;;;8.80;6.10;;;;;;;0.51;79.88;99178.02;24490;1361;3058830;-63
2021/12/17 02:05:20;;;;;;;11.10;6.60;;;;;;;1.27;76.99;99176.09;24445;1361;3052896;-64
2021/12/17 02:07:53;;;;;;;8.50;5.60;;;;;;;1.20;76.33;99173.02;24516;1355;3026892;-64
2021/12/17 02:11:17;;;;;;;8.60;5.40;;;;;;;0.64;77.96;99174.27;24502;1358;3026281;-66
2021/12/17 02:31:23;;;;;;;11.20;7.00;;;;;;;1.13;76.85;99134.55;24499;1361;3054875;-64
2021/12/17 02:33:15;;;;;;;9.20;6.10;;;;;;;0.82;77.79;99126.55;24486;1355;3056685;-64
2021/12/17 02:35:45;;;;;;;7.10;4.70;;;;;;;0.72;77.71;99123.70;24527;1354;3026331;-63
2021/12/17 02:38:16;;;;;;;7.40;4.00;;;;;;;0.73;77.86;99121.80;24511;1361;3051980;-63
2021/12/17 02:47:22;;;;;;;10.20;6.30;;;;;;;1.46;75.60;99116.55;24447;1354;3052174;-64
2021/12/17 02:49:51;;;;;;;8.40;5.30;;;;;;;1.20;76.72;99116.23;24474;1355;3026211;-63
2021/12/17 02:52:20;;;;;;;9.60;6.00;;;;;;;1.17;76.44;99114.06;24434;1355;3048949;-63
2021/12/17 02:54:50;;;;;;;10.00;6.80;;;;;;;0.95;77.16;99112.27;24456;1359;3026822;-65
2021/12/17 02:57:19;;;;;;;10.20;5.80;;;;;;;0.77;78.00;99113.77;24516;1355;3026851;-63
2021/12/17 02:59:49;;;;;;;10.50;5.40;;;;;;;1.34;78.06;99105.47;24461;1354;3051590;-64
2021/12/17 03:02:19;;;;;;;13.10;7.70;;;;;;;1.84;75.84;99101.92;24426;1349;3027398;-63
2021/12/17 03:04:49;;;;;;;11.60;7.30;;;;;;;1.89;75.46;99095.55;24448;1351;3026941;-64
2021/12/17 03:07:18;;;;;;;11.90;7.30;;;;;;;1.63;75.78;99099.98;24492;1355;3029959;-65
2021/12/17 03:10:03;;;;;;;12.80;8.20;;;;;;;1.57;75.70;99098.27;24474;1359;3027148;-65
2021/12/17 03:15:27;;;;;;;12.00;7.40;;;;;;;1.16;76.80;99100.11;24535;1361;3026609;-63
2021/12/17 03:23:45;;;;;;;11.20;6.70;;;;;;;1.96;74.86;99078.08;24379;1355;3055876;-64
2021/12/17 03:26:20;;;;;;;6.50;4.60;;;;;;;2.03;74.69;99073.70;24494;1355;3053749;-63
2021/12/17 03:28:53;;;;;;;6.60;4.40;;;;;;;1.93;74.61;99072.46;24505;1359;3026809;-62
2021/12/17 03:31:22;;;;;;;9.20;6.10;;;;;;;1.78;74.86;99074.52;24509;1356;3026941;-64
2021/12/17 03:33:55;;;;;;;9.70;6.60;;;;;;;1.60;75.32;99070.20;24507;1355;3026038;-64
2021/12/17 03:36:26;;;;;;;6.80;3.90;;;;;;;1.34;76.89;99071.33;24466;1358;3026555;-65
2021/12/17 03:38:56;;;;;;;8.90;4.80;;;;;;;2.02;75.93;99062.14;24501;1355;3027850;-62
2021/12/17 03:41:34;;;;;;;8.50;5.40;;;;;;;2.67;73.57;99066.05;24420;1362;3029369;-64
2021/12/17 03:44:06;;;;;;;11.60;6.70;;;;;;;2.55;73.30;99061.28;24483;1355;3054760;-65
2021/12/17 03:47:07;;;;;;;11.20;6.60;;;;;;;2.08;74.44;99058.19;24495;1361;3056265;-64
2021/12/17 03:49:45;;;;;;;11.70;7.80;;;;;;;2.00;74.68;99055.83;24433;1357;3050213;-63
2021/12/17 03:52:16;;;;;;;11.20;7.30;;;;;;;1.71;75.82;99056.73;24483;1355;3026328;-65
2021/12/17 03:54:46;;;;;;;14.60;6.70;;;;;;;1.49;77.08;99048.61;24480;1355;3026729;-65
2021/12/17 03:57:18;;;;;;;9.20;5.20;;;;;;;1.41;77.72;99049.02;24504;1355;3027524;-64
2021/12/17 03:59:50;;;;;;;11.40;6.70;;;;;;;2.32;76.22;99038.36;24473;1355;3051307;-64
2021/12/17 04:02:23;;;;;;;12.90;7.30;;;;;;;2.67;73.73;99038.20;24481;1355;3026685;-65
2021/12/17 04:04:54;;;;;;;12.70;7.60;;;;;;;2.60;73.83;99039.14;24458;1361;3026921;-65
2021/12/17 04:07:35;;;;;;;13.30;7.20;;;;;;;2.39;74.23;99038.31;24510;1359;3058678;-62
2021/12/17 04:10:11;;;;;;;17.40;8.40;;;;;;;2.19;75.11;99037.61;24468;1355;3051876;-64
2021/12/17 04:12:54;;;;;;;13.60;6.80;;;;;;;2.04;75.45;99040.34;24493;1359;3026412;-64
2021/12/17 04:15:33;;;;;;;13.10;6.90;;;;;;;1.91;75.59;99034.89;24479;1360;3051542;-64
2021/12/17 04:18:07;;;;;;;17.10;9.50;;;;;;;1.73;76.23;99037.34;24462;1355;3068388;-63
2021/12/17 04:20:37;;;;;;;13.60;7.00;;;;;;;1.76;75.77;99036.56;24500;1359;3049488;-66
2021/12/17 04:23:06;;;;;;;18.70;9.40;;;;;;;2.30;75.56;99031.85;24455;1359;3026516;-64
2021/12/17 04:25:35;;;;;;;17.80;10.80;;;;;;;2.88;73.52;99032.61;24513;1359;3026813;-66
2021/12/17 04:28:05;;;;;;;19.90;12.20;;;;;;;2.86;73.07;99030.48;24471;1355;3027034;-64
2021/12/17 04:30:35;;;;;;;25.00;12.30;;;;;;;2.84;73.06;99023.77;24491;1355;3026674;-65
2021/12/17 04:33:06;;;;;;;26.50;13.20;;;;;;;2.63;73.31;99023.64;24483;1355;3026857;-65
2021/12/17 04:35:36;;;;;;;28.10;14.20;;;;;;;2.44;73.90;99019.13;24533;1355;3027082;-64
2021/12/17 04:38:08;;;;;;;26.10;13.10;;;;;;;2.21;74.74;99018.34;24504;1358;3028476;-64
2021/12/17 04:40:39;;;;;;;28.20;13.50;;;;;;;2.06;75.53;99016.43;24511;1358;3028614;-62
2021/12/17 04:43:32;;;;;;;28.10;14.10;;;;;;;2.01;75.18;99012.77;24506;1358;3029961;-63
2021/12/17 04:57:30;;;;;;;26.60;13.90;;;;;;;2.93;72.93;99004.78;24525;1355;3051461;-65
2021/12/17 05:00:05;;;;;;;29.20;14.40;;;;;;;2.74;73.50;99005.12;24417;1361;3071285;-63
2021/12/17 05:02:38;;;;;;;33.00;15.40;;;;;;;2.50;74.24;99007.02;24456;1355;3049041;-65
2021/12/17 05:05:10;;;;;;;29.10;15.80;;;;;;;2.33;75.08;99007.23;24535;1358;3051945;-64
2021/12/17 05:07:48;;;;;;;32.60;18.00;;;;;;;2.24;75.62;99002.52;24468;1361;3026953;-65
2021/12/17 05:18:53;;;;;;;26.10;13.20;;;;;;;3.25;73.05;98999.77;24463;1358;3054113;-65
2021/12/17 05:21:24;;;;;;;;;;;;;;;3.31;72.85;98996.60;24507;1355;3069911;-64
2021/12/17 05:23:54;;;;;;;24.60;11.90;;;;;;;2.95;73.41;99002.13;24515;1355;3028428;-64
2021/12/17 05:26:24;;;;;;;28.30;13.70;;;;;;;2.70;74.52;99001.44;24524;1357;3026847;-65
2021/12/17 05:28:58;;;;;;;;;;;;;;;2.64;74.85;99001.66;24513;1355;3071266;-66
2021/12/17 05:31:32;;;;;;;25.80;12.70;;;;;;;2.50;75.19;99000.09;24426;1359;3049555;-64
2021/12/17 05:34:01;;;;;;;23.20;12.00;;;;;;;2.38;75.76;98996.17;24497;1359;3026392;-65
2021/12/17 05:36:50;;;;;;;27.30;13.90;;;;;;;2.32;75.86;98993.78;24517;1358;3068377;-64
2021/12/17 05:39:23;;;;;;;25.20;11.60;;;;;;;2.32;75.79;98994.33;24506;1355;3026788;-64
2021/12/17 05:41:52;;;;;;;21.90;10.90;;;;;;;2.25;76.41;98992.98;24458;1358;3026578;-64
2021/12/17 05:44:30;;;;;;;17.30;8.90;;;;;;;2.90;75.02;98989.31;24459;1362;3054680;-66
2021/12/17 05:47:00;;;;;;;20.50;10.00;;;;;;;3.40;72.98;98982.41;24476;1359;3026910;-65
2021/12/17 05:49:31;;;;;;;20.00;10.20;;;;;;;3.58;72.39;98980.50;24495;1355;3026667;-64
2021/12/17 05:52:04;;;;;;;21.00;11.10;;;;;;;3.55;72.21;98975.60;24517;1355;3026618;-64
2021/12/17 05:54:34;;;;;;;24.40;13.20;;;;;;;3.44;72.52;98977.27;24486;1355;3026491;-65
2021/12/17 05:57:04;;;;;;;24.50;13.50;;;;;;;3.31;72.54;98980.66;24466;1358;3026557;-65
2021/12/17 05:59:36;;;;;;;21.90;11.30;;;;;;;3.19;73.06;98979.60;24552;1355;3026348;-64
2021/12/17 06:02:11;;;;;;;18.10;10.70;;;;;;;3.06;73.19;98977.66;24515;1355;3026955;-64
2021/12/17 06:04:43;;;;;;;19.90;10.70;;;;;;;3.01;73.51;98975.58;24489;1345;3052351;-65
2021/12/17 06:07:12;;;;;;;21.80;11.20;;;;;;;2.88;73.66;98974.88;24494;1359;3026674;-64
2021/12/17 06:09:45;;;;;;;22.60;12.20;;;;;;;2.81;74.11;98969.75;24163;1358;3439106;-66
2021/12/17 06:12:17;;;;;;;19.40;9.70;;;;;;;2.72;74.67;98975.63;24499;1351;3053384;-65
2021/12/17 06:14:46;;;;;;;18.30;10.30;;;;;;;3.29;73.74;98971.91;24497;1355;3026446;-67
2021/12/17 06:17:15;;;;;;;20.80;10.50;;;;;;;3.98;71.86;98975.95;24513;1361;3027387;-64
2021/12/17 06:19:49;;;;;;;20.70;11.70;;;;;;;4.12;70.58;98974.48;24504;1355;3054190;-65
2021/12/17 06:22:19;;;;;;;27.80;13.40;;;;;;;3.84;70.92;98979.29;24466;1355;3028044;-64
2021/12/17 06:24:49;;;;;;;26.70;13.60;;;;;;;3.58;71.68;98971.98;24462;1355;3026629;-65
2021/12/17 06:27:20;;;;;;;30.20;14.30;;;;;;;3.31;72.43;98974.61;24477;1358;3026460;-64
2021/12/17 06:29:49;;;;;;;26.70;15.00;;;;;;;3.29;72.66;98977.13;24458;1359;3027217;-64
2021/12/17 06:32:19;;;;;;;47.00;24.60;;;;;;;3.07;73.59;98975.39;24505;1358;3026313;-65
2021/12/17 06:34:49;;;;;;;39.60;20.90;;;;;;;3.03;73.71;98976.55;24427;1358;3026795;-63
2021/12/17 06:37:18;;;;;;;33.30;16.20;;;;;;;3.09;73.52;98975.81;24532;1361;3026553;-65
2021/12/17 06:39:47;;;;;;;33.90;15.50;;;;;;;3.05;73.21;98973.54;24500;1359;3053718;-64
2021/12/17 06:42:17;;;;;;;30.30;14.10;;;;;;;2.93;73.49;98971.91;24541;1355;3027007;-64
2021/12/17 06:44:47;;;;;;;25.00;11.20;;;;;;;2.85;73.84;98973.08;24498;1355;3026109;-63
2021/12/17 06:47:29;;;;;;;27.60;12.80;;;;;;;3.27;73.63;98969.23;24519;1356;3027001;-66
2021/12/17 07:10:50;;;;;;;33.70;16.40;;;;;;;2.92;73.62;98967.07;24534;1355;3055652;-64
2021/12/17 07:40:42;;;;;;;63.70;26.70;;;;;;;2.61;75.56;98968.08;24388;1368;3055520;-63
2021/12/17 07:43:14;;;;;;;55.30;21.80;;;;;;;2.45;76.18;98969.65;24479;1355;3026571;-65
2021/12/17 07:45:53;;;;;;;50.90;21.70;;;;;;;2.95;75.38;98962.66;24488;1356;3069890;-63
2021/12/17 07:48:28;;;;;;;55.90;23.60;;;;;;;3.52;73.54;98965.31;24496;1358;3049359;-65
2021/12/17 07:51:07;;;;;;;54.80;24.70;;;;;;;3.60;72.86;98966.89;24509;1355;3054013;-66
2021/12/17 07:53:56;;;;;;;66.80;29.80;;;;;;;3.30;73.49;98969.48;24506;1352;3053231;-64
2021/12/17 07:56:27;;;;;;;65.70;29.40;;;;;;;2.99;74.49;98971.34;24460;1358;3029814;-65
2021/12/17 07:59:01;;;;;;;62.90;27.90;;;;;;;2.84;75.16;98963.25;24532;1358;3049211;-64
2021/12/17 08:01:30;;;;;;;58.70;28.30;;;;;;;2.63;75.75;98962.10;24472;1352;3026608;-66
2021/12/17 08:03:59;;;;;;;57.00;26.10;;;;;;;2.55;76.49;98962.92;24525;1355;3055837;-66
2021/12/17 08:06:41;;;;;;;45.30;20.00;;;;;;;2.36;77.34;98963.07;24556;1353;3048862;-66
2021/12/17 08:09:19;;;;;;;37.90;18.80;;;;;;;2.87;76.30;98960.71;24550;1354;3054758;-66
2021/12/17 08:11:55;;;;;;;44.10;20.50;;;;;;;3.50;74.38;98959.14;24475;1357;3026132;-66
2021/12/17 08:14:25;;;;;;;46.00;21.80;;;;;;;3.36;73.81;98957.80;24471;1355;3066800;-67
2021/12/17 08:17:02;;;;;;;42.40;21.90;;;;;;;3.21;74.15;98955.43;24445;1356;3026399;-65
2021/12/17 08:25:13;;;;;;;37.50;19.20;;;;;;;2.39;76.88;98952.41;24488;1355;3058581;-66
2021/12/17 08:27:50;;;;;;;31.50;15.20;;;;;;;2.40;76.84;98950.80;24521;1354;3051994;-64
2021/12/17 08:32:54;;;;;;;;;;;;;;;2.25;77.54;98953.59;24535;1359;3051661;-66
2021/12/17 08:35:23;;;;;;;13.20;7.70;;;;;;;2.56;76.75;98944.70;24459;1358;3026296;-65
2021/12/17 08:37:54;;;;;;;13.30;8.10;;;;;;;3.05;75.18;98940.82;24463;1356;3053309;-66
2021/12/17 08:40:26;;;;;;;15.00;8.90;;;;;;;3.22;73.91;98931.36;24504;1358;3027532;-64
2021/12/17 08:42:57;;;;;;;11.90;7.40;;;;;;;3.10;74.05;98923.18;24420;1358;3068062;-67
2021/12/17 08:45:28;;;;;;;9.30;7.40;;;;;;;2.76;75.04;98928.25;24465;1358;3028449;-67
2021/12/17 08:48:19;;;;;;;9.90;6.80;;;;;;;2.28;76.65;98931.53;24459;1361;3055260;-66
2021/12/17 08:50:56;;;;;;;9.60;7.10;;;;;;;2.24;77.14;98924.08;24533;1352;3051348;-65
2021/12/17 08:53:25;;;;;;;10.60;8.20;;;;;;;2.19;77.22;98918.22;24512;1355;3026373;-66
2021/12/17 08:55:54;;;;;;;10.90;6.20;;;;;;;2.04;77.55;98919.59;24507;1359;3054831;-65
2021/12/17 08:58:24;;;;;;;8.10;4.40;;;;;;;1.88;78.62;98924.44;24526;1358;3026703;-65
2021/12/17 09:00:53;;;;;;;7.90;4.80;;;;;;;2.50;77.06;98913.98;24467;1361;3030278;-64
2021/12/17 09:03:27;;;;;;;7.20;5.00;;;;;;;3.05;75.12;98906.73;24573;1354;3054896;-65
2021/12/17 09:06:11;;;;;;;6.40;4.90;;;;;;;3.07;74.45;98905.43;24527;1358;3053160;-67
2021/12/17 09:08:44;;;;;;;8.70;5.80;;;;;;;2.90;74.92;98901.07;24515;1358;3055604;-66
2021/12/17 09:11:15;;;;;;;8.90;6.50;;;;;;;2.75;75.29;98899.05;24548;1355;3026436;-65
2021/12/17 09:13:54;;;;;;;9.40;7.00;;;;;;;2.47;76.39;98900.60;24490;1355;3052532;-64
2021/12/17 09:16:24;;;;;;;9.50;7.20;;;;;;;2.29;76.82;98906.25;24514;1361;3028227;-66
2021/12/17 09:18:56;;;;;;;9.20;6.60;;;;;;;2.36;76.53;98897.17;24480;1359;3026545;-65
2021/12/17 09:21:48;;;;;;;8.20;6.00;;;;;;;2.25;77.29;98896.20;24443;1361;3049823;-65
2021/12/17 09:24:22;;;;;;;7.40;5.10;;;;;;;2.92;75.71;98895.66;24456;1361;3054786;-65
2021/12/17 09:27:10;;;;;;;6.90;4.70;;;;;;;3.27;73.89;98889.41;24511;1359;3052605;-65
2021/12/17 09:29:59;;;;;;;7.90;5.20;;;;;;;3.20;73.89;98886.77;24492;1355;3057281;-64
2021/12/17 09:32:28;;;;;;;9.20;6.50;;;;;;;2.91;74.42;98878.71;24523;1355;3029490;-66
2021/12/17 09:34:57;;;;;;;10.60;6.20;;;;;;;2.81;74.94;98882.21;24515;1358;3052248;-66
2021/12/17 09:37:27;;;;;;;6.10;4.70;;;;;;;2.52;75.57;98882.81;24543;1358;3026891;-66
2021/12/17 09:39:56;;;;;;;7.90;5.00;;;;;;;2.38;76.24;98879.85;24515;1358;3026072;-65
2021/12/17 09:42:25;;;;;;;9.80;6.80;;;;;;;2.23;76.89;98879.69;24562;1354;3053420;-67
2021/12/17 09:44:53;;;;;;;8.20;6.10;;;;;;;2.26;77.19;98875.44;24563;1355;3026216;-65
2021/12/17 09:47:22;;;;;;;6.10;4.20;;;;;;;2.14;77.76;98872.40;24539;1358;3051814;-68
2021/12/17 09:49:54;;;;;;;5.60;3.90;;;;;;;2.81;76.22;98861.96;24523;1352;3026450;-67
2021/12/17 09:52:24;;;;;;;8.60;4.90;;;;;;;3.23;74.11;98857.42;24558;1355;3026965;-67
2021/12/17 09:54:53;;;;;;;7.70;5.50;;;;;;;3.24;73.80;98855.61;24572;1356;3026727;-66
2021/12/17 09:57:25;;;;;;;10.30;6.80;;;;;;;3.09;74.23;98855.52;24561;1352;3027275;-65
2021/12/17 09:59:54;;;;;;;10.40;7.40;;;;;;;2.95;74.72;98856.60;24570;1352;3026380;-66
2021/12/17 10:02:23;;;;;;;12.10;7.60;;;;;;;2.69;75.62;98855.02;24563;1356;3026147;-65
2021/12/17 10:04:54;;;;;;;10.00;6.70;;;;;;;2.56;75.92;98851.55;24541;1352;3026289;-67
2021/12/17 10:07:44;;;;;;;10.10;6.60;;;;;;;2.21;77.10;98845.73;24508;1355;3054181;-65
2021/12/17 10:10:15;;;;;;;11.90;7.20;;;;;;;2.07;77.83;98841.90;24482;1352;3027936;-64
2021/12/17 10:12:46;;;;;;;11.00;6.10;;;;;;;2.13;78.02;98834.95;24645;1352;3026434;-65
2021/12/17 10:15:19;;;;;;;8.90;6.20;;;;;;;2.66;76.52;98838.89;24611;1352;3026969;-64
2021/12/17 10:18:00;;;;;;;7.20;4.50;;;;;;;3.09;75.04;98837.02;24497;1352;3027081;-66
2021/12/17 10:20:41;;;;;;;10.80;6.30;;;;;;;3.21;73.94;98836.89;24510;1355;3056979;-65
2021/12/17 10:23:11;;;;;;;8.70;5.80;;;;;;;2.91;74.70;98840.14;24486;1353;3049962;-65
2021/12/17 10:25:44;;;;;;;9.10;6.60;;;;;;;2.80;75.45;98835.92;24519;1354;3026206;-66
2021/12/17 10:28:13;;;;;;;8.40;5.80;;;;;;;2.71;75.54;98835.77;24502;1358;3028841;-66
2021/12/17 10:30:53;;;;;;;8.00;6.20;;;;;;;2.57;76.39;98838.53;24480;1355;3071407;-65
2021/12/17 10:33:24;;;;;;;8.00;6.00;;;;;;;2.47;76.53;98836.83;24498;1358;3026951;-65
2021/12/17 10:35:54;;;;;;;8.10;5.50;;;;;;;2.32;77.46;98836.68;24527;1356;3026450;-65
2021/12/17 10:38:25;;;;;;;5.90;4.30;;;;;;;2.33;77.59;98836.48;24537;1359;3027174;-65
2021/12/17 10:41:03;;;;;;;7.50;5.20;;;;;;;2.78;76.52;98832.35;24527;1355;3026481;-63
2021/12/17 10:43:43;;;;;;;9.70;6.70;;;;;;;3.10;75.04;98830.08;24640;1352;3050869;-65
2021/12/17 10:46:30;;;;;;;10.20;5.80;;;;;;;3.10;74.89;98822.45;24508;1353;3053217;-65
2021/12/17 10:49:13;;;;;;;9.10;5.50;;;;;;;3.01;75.16;98822.47;24515;1352;3053815;-64
2021/12/17 10:51:45;;;;;;;8.70;6.10;;;;;;;2.78;75.63;98824.74;24513;1352;3069534;-66
2021/12/17 10:54:16;;;;;;;8.00;6.00;;;;;;;2.60;76.43;98819.37;24513;1359;3027612;-66
2021/12/17 10:56:49;;;;;;;9.80;6.70;;;;;;;2.38;77.49;98813.82;24558;1352;3026747;-65
2021/12/17 10:59:26;;;;;;;9.90;5.90;;;;;;;2.47;77.58;98811.58;24574;1358;3027008;-66
2021/12/17 11:01:59;;;;;;;9.60;5.70;;;;;;;2.44;77.95;98808.58;24498;1352;3059243;-65
2021/12/17 11:04:29;;;;;;;5.90;3.90;;;;;;;3.02;76.38;98805.62;24543;1352;3048812;-66
2021/12/17 11:07:00;;;;;;;9.70;5.40;;;;;;;3.67;74.12;98803.13;24517;1352;3026482;-65
2021/12/17 11:09:49;;;;;;;8.60;5.10;;;;;;;3.59;73.20;98805.72;24490;1356;3027055;-65
2021/12/17 11:12:41;;;;;;;8.30;5.40;;;;;;;3.45;73.65;98804.94;24544;1352;3071658;-64
2021/12/17 11:15:24;;;;;;;7.90;5.60;;;;;;;3.11;74.80;98805.28;24514;1353;3048759;-62
2021/12/17 11:17:55;;;;;;;;;;;;;;;3.02;75.15;98807.02;24518;1352;3055446;-65
2021/12/17 11:20:29;;;;;;;6.90;4.90;;;;;;;2.74;76.34;98810.90;24473;1352;3028050;-65
2021/12/17 11:23:06;;;;;;;7.60;5.50;;;;;;;2.78;76.34;98803.63;24498;1360;3056241;-65
2021/12/17 11:25:36;;;;;;;8.50;5.20;;;;;;;2.70;76.56;98799.63;24493;1352;3048738;-66
2021/12/17 11:28:06;;;;;;;7.90;3.80;;;;;;;2.64;77.23;98799.52;24557;1358;3026576;-65
2021/12/17 11:30:38;;;;;;;6.10;3.40;;;;;;;3.19;75.62;98802.53;24603;1358;3027604;-65
2021/12/17 11:33:07;;;;;;;9.30;4.60;;;;;;;3.58;73.88;98799.52;24593;1352;3026527;-68
2021/12/17 11:38:55;;;;;;;8.50;4.20;;;;;;;3.50;73.75;98789.79;30763;1366;3026294;-63
2021/12/17 11:41:36;;;;;;;10.60;6.10;;;;;;;3.71;73.53;98775.55;24313;1366;3053805;-64
2021/12/17 11:44:08;;;;;;;9.10;4.80;;;;;;;3.65;72.68;98782.23;24327;1368;3054035;-65
2021/12/17 11:46:37;;;;;;;8.90;4.40;;;;;;;3.29;73.80;98784.31;24378;1362;3026908;-66
2021/12/17 11:49:13;;;;;;;8.00;5.30;;;;;;;2.87;75.65;98779.07;24344;1367;3026741;-66
2021/12/17 11:51:52;;;;;;;7.20;4.20;;;;;;;2.56;77.22;98777.50;24319;1358;3178626;-67
2021/12/17 11:54:32;;;;;;;6.40;3.90;;;;;;;2.46;77.77;98784.33;24447;1361;3056734;-63
2021/12/17 11:57:10;;;;;;;6.20;4.70;;;;;;;3.06;76.16;98781.95;24448;1351;3049373;-63
2021/12/17 11:59:42;;;;;;;6.60;4.80;;;;;;;3.41;74.79;98777.56;24443;1363;3053333;-65
2021/12/17 12:02:16;;;;;;;7.20;4.80;;;;;;;3.19;74.80;98786.58;24428;1364;3026384;-62
2021/12/17 12:04:54;;;;;;;7.80;5.10;;;;;;;2.95;75.94;98790.52;24414;1362;3067751;-65
2021/12/17 12:07:25;;;;;;;8.80;5.00;;;;;;;2.59;76.86;98794.67;24417;1356;3049305;-64
2021/12/17 12:10:01;;;;;;;6.50;4.30;;;;;;;2.53;77.74;98800.13;24446;1358;3026570;-65
2021/12/17 12:12:31;;;;;;;10.50;5.20;;;;;;;2.32;78.12;98798.64;24454;1366;3054464;-64
2021/12/17 12:15:31;;;;;;;4.50;3.00;;;;;;;2.30;78.78;98802.53;24414;1362;3026872;-63
2021/12/17 12:18:11;;;;;;;5.40;3.50;;;;;;;3.12;76.04;98805.23;24408;1362;3052880;-64
2021/12/17 12:20:48;;;;;;;3.80;3.00;;;;;;;3.49;74.53;98805.42;24427;1358;3054587;-64
2021/12/17 12:23:21;;;;;;;7.20;4.40;;;;;;;3.59;73.98;98807.95;24370;1360;3050177;-65
2021/12/17 12:26:08;;;;;;;8.50;4.60;;;;;;;3.36;74.30;98810.64;24411;1359;3066783;-64
2021/12/17 12:28:46;;;;;;;5.70;4.10;;;;;;;3.21;75.04;98805.75;24457;1363;3047816;-65
2021/12/17 12:31:30;;;;;;;5.00;4.00;;;;;;;3.07;75.39;98804.73;24450;1360;3054746;-65
2021/12/17 12:34:03;;;;;;;5.30;3.90;;;;;;;3.10;74.72;98803.75;24417;1358;3051737;-64
2021/12/17 12:36:51;;;;;;;6.00;3.30;;;;;;;2.86;75.55;98804.20;24416;1364;3028911;-64
2021/12/17 12:39:53;;;;;;;4.40;3.30;;;;;;;2.93;75.61;98805.98;24447;1362;3052124;-63
2021/12/17 12:42:24;;;;;;;3.20;2.60;;;;;;;2.66;76.55;98808.77;24374;1360;3055564;-65
2021/12/17 12:44:55;;;;;;;4.60;3.20;;;;;;;3.51;75.09;98807.25;24465;1363;3026878;-65
2021/12/17 12:47:25;;;;;;;5.60;3.40;;;;;;;3.92;72.91;98807.42;24444;1358;3026980;-66
2021/12/17 12:50:04;;;;;;;4.80;3.30;;;;;;;4.14;72.38;98811.65;24396;1357;3027163;-65
2021/12/17 12:52:51;;;;;;;4.10;3.70;;;;;;;3.91;72.18;98817.14;24458;1366;3055303;-64
2021/12/17 12:55:49;;;;;;;6.90;4.70;;;;;;;3.79;72.65;98816.66;24428;1358;3056549;-66
2021/12/17 12:58:27;;;;;;;5.20;4.10;;;;;;;3.59;73.24;98818.69;24306;1360;3055923;-64
2021/12/17 13:00:59;;;;;;;4.40;3.50;;;;;;;3.38;73.76;98818.00;24423;1363;3052858;-65
2021/12/17 13:03:30;;;;;;;7.50;4.40;;;;;;;3.16;74.66;98817.20;24452;1361;3026875;-65
2021/12/17 13:06:00;;;;;;;7.50;5.10;;;;;;;3.18;74.66;98817.80;24486;1361;3026400;-65
2021/12/17 13:08:33;;;;;;;5.60;3.30;;;;;;;3.01;75.62;98817.63;24438;1360;3026269;-66
2021/12/17 13:11:04;;;;;;;5.50;3.70;;;;;;;3.56;74.46;98812.23;24425;1357;3051864;-66
2021/12/17 13:13:51;;;;;;;5.20;3.60;;;;;;;4.17;72.42;98803.18;24424;1362;3026661;-67
2021/12/17 13:16:35;;;;;;;7.00;4.20;;;;;;;4.43;71.51;98797.70;24473;1357;3052490;-65
2021/12/17 13:22:13;;;;;;;5.90;4.30;;;;;;;3.94;72.65;98804.20;24373;1363;3052604;-64
2021/12/17 13:24:44;;;;;;;8.00;4.40;;;;;;;3.69;73.02;98811.00;24473;1358;3055477;-66
2021/12/17 13:27:13;;;;;;;7.00;4.70;;;;;;;3.42;73.94;98814.21;24450;1359;3029303;-64
2021/12/17 13:29:44;;;;;;;7.40;5.80;;;;;;;3.31;74.28;98818.34;24458;1358;3027324;-65
2021/12/17 13:32:17;;;;;;;8.20;5.90;;;;;;;3.02;75.51;98822.23;24437;1362;3026682;-66
2021/12/17 13:34:49;;;;;;;6.70;4.70;;;;;;;2.80;76.68;98821.54;24494;1363;3027803;-65
2021/12/17 13:37:30;;;;;;;7.10;5.20;;;;;;;3.35;75.63;98818.30;24454;1358;3030006;-66
2021/12/17 13:40:02;;;;;;;8.50;5.50;;;;;;;3.69;73.98;98820.02;24432;1358;3056920;-65
2021/12/17 13:42:46;;;;;;;7.80;4.60;;;;;;;3.88;73.48;98818.85;24465;1361;3026496;-67
2021/12/17 13:45:17;;;;;;;7.30;4.90;;;;;;;3.61;73.93;98826.58;24443;1359;3056078;-64
2021/12/17 13:47:47;;;;;;;7.80;5.30;;;;;;;3.29;74.55;98830.70;24466;1355;3026443;-65
2021/12/17 13:50:23;;;;;;;5.70;5.00;;;;;;;3.20;75.19;98829.81;24438;1356;3026395;-64
2021/12/17 13:52:59;;;;;;;7.40;5.50;;;;;;;3.19;74.99;98827.64;24414;1361;3051980;-64
2021/12/17 13:55:31;;;;;;;6.10;4.90;;;;;;;3.04;75.36;98834.96;24479;1351;3055412;-64
2021/12/17 13:58:02;;;;;;;9.50;5.40;;;;;;;2.77;76.44;98831.16;24426;1357;3026697;-64
2021/12/17 14:00:36;;;;;;;4.40;3.30;;;;;;;2.66;77.49;98830.73;24429;1358;3029161;-65
2021/12/17 14:03:07;;;;;;;4.30;3.50;;;;;;;3.35;75.89;98827.31;24430;1357;3027554;-62
2021/12/17 14:05:50;;;;;;;5.00;3.90;;;;;;;3.58;74.31;98831.02;24457;1363;3026558;-65
2021/12/17 14:08:20;;;;;;;6.50;4.00;;;;;;;3.48;74.42;98834.40;24382;1357;3052458;-63
2021/12/17 14:10:53;;;;;;;9.20;4.70;;;;;;;3.43;74.99;98834.41;24381;1357;3026479;-65
2021/12/17 14:13:29;;;;;;;6.30;5.10;;;;;;;3.10;75.86;98839.91;24464;1358;3029895;-63
2021/12/17 14:15:59;;;;;;;5.50;4.70;;;;;;;2.92;76.78;98840.63;24430;1358;3054781;-65
2021/12/17 14:18:28;;;;;;;9.00;5.70;;;;;;;2.70;77.69;98829.53;24453;1353;3027487;-65
2021/12/17 14:21:02;;;;;;;9.60;5.60;;;;;;;2.36;79.33;98834.27;24361;1356;3026592;-65
2021/12/17 14:23:32;;;;;;;7.30;4.70;;;;;;;2.33;79.88;98835.42;24442;1358;3049715;-66
2021/12/17 14:26:06;;;;;;;8.60;5.40;;;;;;;3.14;78.08;98831.30;24454;1360;3028235;-66
2021/12/17 14:28:37;;;;;;;9.40;6.20;;;;;;;3.69;75.57;98828.84;24452;1360;3027059;-66
2021/12/17 14:31:13;;;;;;;9.80;5.20;;;;;;;3.45;75.58;98826.04;24449;1358;3027331;-64
2021/12/17 14:33:44;;;;;;;10.30;5.50;;;;;;;3.23;76.50;98829.90;24462;1351;3050253;-64
2021/12/17 14:36:15;;;;;;;8.20;6.00;;;;;;;3.05;76.89;98832.31;24482;1357;3026666;-66
2021/12/17 14:38:53;;;;;;;8.20;6.50;;;;;;;2.98;77.44;98830.54;24435;1356;3026148;-64
2021/12/17 14:41:30;;;;;;;9.70;6.50;;;;;;;2.96;77.33;98832.53;24457;1357;3058777;-64
2021/12/17 14:44:12;;;;;;;9.10;6.70;;;;;;;2.78;77.96;98831.31;24434;1359;3050528;-63
2021/12/17 14:46:50;;;;;;;6.20;4.50;;;;;;;2.73;78.42;98835.48;24447;1357;3055786;-62
2021/12/17 15:05:21;;;;;;;10.20;5.70;;;;;;;2.78;77.90;98845.33;24404;1356;3026583;-64